createdAt,value
2022-10-02T00:03:17.537Z,193
2022-10-02T00:06:58.126Z,212
2022-10-02T00:10:38.399Z,221
2022-10-02T00:14:18.533Z,222
2022-10-02T00:17:59.097Z,212
2022-10-02T00:21:39.205Z,180
2022-10-02T00:25:19.188Z,198
2022-10-02T00:28:59.787Z,195
2022-10-02T00:32:41.315Z,208
2022-10-02T00:36:21.458Z,171
2022-10-02T00:40:01.353Z,177
2022-10-02T00:43:41.500Z,189
2022-10-02T00:47:23.197Z,194
2022-10-02T00:51:03.512Z,202
2022-10-02T00:54:43.631Z,192
2022-10-02T00:58:24.721Z,204
2022-10-02T01:03:18.829Z,207
2022-10-02T01:06:59.044Z,214
2022-10-02T01:10:39.409Z,212
2022-10-02T01:14:19.441Z,224
2022-10-02T01:17:59.960Z,185
2022-10-02T01:21:40.052Z,217
2022-10-02T01:25:20.042Z,201
2022-10-02T01:29:00.694Z,213
2022-10-02T01:32:41.202Z,214
2022-10-02T01:36:21.356Z,214
2022-10-02T01:40:01.286Z,216
2022-10-02T01:43:41.218Z,227
2022-10-02T01:47:22.644Z,228
2022-10-02T01:51:02.472Z,129
2022-10-02T01:54:42.490Z,109
2022-10-02T01:58:22.439Z,107
2022-10-02T02:03:18.611Z,128
2022-10-02T02:06:58.642Z,200
2022-10-02T02:10:42.449Z,190
2022-10-02T02:14:22.576Z,185
2022-10-02T02:18:02.956Z,179
2022-10-02T02:21:42.915Z,180
2022-10-02T02:25:23.051Z,173
2022-10-02T02:29:03.689Z,198
2022-10-02T02:32:44.434Z,198
2022-10-02T02:36:24.690Z,219
2022-10-02T02:40:04.749Z,213
2022-10-02T02:43:44.857Z,212
2022-10-02T02:47:26.113Z,220
2022-10-02T02:51:06.281Z,197
2022-10-02T02:54:46.477Z,205
2022-10-02T02:58:33.894Z,211
2022-10-02T03:03:19.011Z,203
2022-10-02T03:06:59.157Z,196
2022-10-02T03:10:39.609Z,211
2022-10-02T03:14:19.562Z,192
2022-10-02T03:17:59.709Z,200
2022-10-02T03:21:39.539Z,170
2022-10-02T03:25:19.607Z,172
2022-10-02T03:29:33.955Z,170
2022-10-02T03:33:14.757Z,168
2022-10-02T03:36:54.786Z,169
2022-10-02T03:41:06.256Z,176
2022-10-02T03:44:46.115Z,109
2022-10-02T03:48:55.218Z,106
2022-10-02T03:52:39.183Z,107
2022-10-02T03:56:19.131Z,107
2022-10-02T03:59:59.291Z,107
2022-10-02T04:03:23.732Z,107
2022-10-02T04:08:52.979Z,128
2022-10-02T04:12:33.056Z,129
2022-10-02T04:16:14.089Z,127
2022-10-02T04:20:01.040Z,128
2022-10-02T04:23:41.746Z,127
2022-10-02T04:27:23.093Z,125
2022-10-02T04:31:04.022Z,126
2022-10-02T04:34:45.061Z,125
2022-10-02T04:38:25.629Z,127
2022-10-02T04:42:05.910Z,126
2022-10-02T04:45:46.827Z,1841
2022-10-02T04:49:28.327Z,108
2022-10-02T04:53:08.640Z,106
2022-10-02T04:56:49.808Z,106
2022-10-02T05:03:19.113Z,106
2022-10-02T05:07:03.957Z,105
2022-10-02T05:10:44.468Z,106
2022-10-02T05:14:24.763Z,106
2022-10-02T05:18:06.015Z,106
2022-10-02T05:21:46.261Z,105
2022-10-02T05:25:26.618Z,104
2022-10-02T05:29:14.164Z,104
2022-10-02T05:32:55.181Z,123
2022-10-02T05:36:43.286Z,123
2022-10-02T05:40:23.791Z,125
2022-10-02T05:44:04.336Z,123
2022-10-02T05:47:44.836Z,123
2022-10-02T05:51:25.427Z,124
2022-10-02T05:55:05.360Z,124
2022-10-02T05:58:45.491Z,123
2022-10-02T06:03:22.593Z,117
2022-10-02T06:07:03.003Z,119
2022-10-02T06:10:43.277Z,119
2022-10-02T06:14:24.011Z,97
2022-10-02T06:18:04.931Z,100
2022-10-02T06:21:49.444Z,100
2022-10-02T06:25:29.510Z,99
2022-10-02T06:29:13.795Z,100
2022-10-02T06:32:58.232Z,99
2022-10-02T06:36:45.763Z,99
2022-10-02T06:40:25.909Z,99
2022-10-02T06:44:06.335Z,99
2022-10-02T06:47:51.466Z,96
2022-10-02T06:51:31.725Z,97
2022-10-02T06:55:15.968Z,98
2022-10-02T06:58:56.588Z,118
2022-10-02T07:03:18.824Z,127
2022-10-02T07:06:58.997Z,120
2022-10-02T07:10:39.161Z,120
2022-10-02T07:14:19.263Z,119
2022-10-02T07:18:05.238Z,137
2022-10-02T07:21:45.522Z,117
2022-10-02T07:25:54.427Z,118
2022-10-02T07:29:35.770Z,116
2022-10-02T07:33:16.847Z,127
2022-10-02T07:36:56.803Z,117
2022-10-02T07:40:36.906Z,624
2022-10-02T07:44:16.873Z,756
2022-10-02T07:48:01.223Z,125
2022-10-02T07:51:41.623Z,103
2022-10-02T07:55:22.069Z,105
2022-10-02T07:59:07.225Z,102
2022-10-02T08:03:18.979Z,118
2022-10-02T08:06:59.227Z,101
2022-10-02T08:10:40.035Z,99
2022-10-02T08:14:26.733Z,99
2022-10-02T08:18:41.276Z,120
2022-10-02T08:22:26.754Z,118
2022-10-02T08:26:07.524Z,121
2022-10-02T08:29:49.093Z,122
2022-10-02T08:33:34.703Z,138
2022-10-02T08:37:16.368Z,129
2022-10-02T08:40:57.947Z,130
2022-10-02T08:44:41.835Z,132
2022-10-02T08:48:23.036Z,148
2022-10-02T08:52:03.461Z,1769
2022-10-02T08:55:43.542Z,1784
2022-10-02T08:59:26.743Z,131
2022-10-02T09:03:18.668Z,140
2022-10-02T09:06:58.936Z,101
2022-10-02T09:10:39.555Z,104
2022-10-02T09:14:20.088Z,100
2022-10-02T09:18:05.137Z,159
2022-10-02T09:21:52.339Z,196
2022-10-02T09:25:32.966Z,202
2022-10-02T09:29:14.578Z,189
2022-10-02T09:32:55.315Z,180
2022-10-02T09:36:36.453Z,168
2022-10-02T09:40:21.692Z,179
2022-10-02T09:44:02.492Z,167
2022-10-02T09:47:48.510Z,205
2022-10-02T09:51:29.107Z,194
2022-10-02T09:55:10.069Z,130
2022-10-02T09:58:50.569Z,128
2022-10-02T10:03:25.053Z,139
2022-10-02T10:07:32.469Z,128
2022-10-02T10:11:13.352Z,129
2022-10-02T10:14:53.849Z,140
2022-10-02T10:18:34.517Z,160
2022-10-02T10:22:19.372Z,142
2022-10-02T10:25:59.715Z,107
2022-10-02T10:29:46.993Z,108
2022-10-02T10:33:28.584Z,118
2022-10-02T10:37:09.088Z,107
2022-10-02T10:40:49.715Z,129
2022-10-02T10:45:03.282Z,129
2022-10-02T10:48:48.525Z,142
2022-10-02T10:52:30.876Z,124
2022-10-02T10:56:11.149Z,119
2022-10-02T10:59:57.003Z,99
2022-10-02T11:03:19.252Z,107
2022-10-02T11:06:59.711Z,187
2022-10-02T11:10:40.389Z,171
2022-10-02T11:14:21.651Z,156
2022-10-02T11:18:02.669Z,265
2022-10-02T11:21:44.942Z,183
2022-10-02T11:25:25.608Z,2168
2022-10-02T11:29:06.397Z,2236
2022-10-02T11:32:47.671Z,4746
2022-10-02T11:36:28.058Z,4523
2022-10-02T11:40:08.511Z,3502
2022-10-02T11:43:55.223Z,1629
2022-10-02T11:47:36.133Z,3093
2022-10-02T11:51:16.290Z,3164
2022-10-02T11:54:56.734Z,1566
2022-10-02T11:58:37.324Z,211
2022-10-02T12:03:21.660Z,1634
2022-10-02T12:07:01.962Z,1599
2022-10-02T12:10:42.587Z,176
2022-10-02T12:14:31.017Z,1648
2022-10-02T12:18:12.786Z,1706
2022-10-02T12:21:53.764Z,1647
2022-10-02T12:25:38.283Z,198
2022-10-02T12:29:19.966Z,1600
2022-10-02T12:33:01.452Z,1587
2022-10-02T12:36:46.198Z,182
2022-10-02T12:40:27.416Z,141
2022-10-02T12:44:08.915Z,126
2022-10-02T12:47:55.657Z,160
2022-10-02T12:51:43.385Z,185
2022-10-02T12:55:24.450Z,274
2022-10-02T12:59:05.507Z,277
2022-10-02T13:03:50.992Z,140
2022-10-02T13:07:37.757Z,101
2022-10-02T13:11:22.109Z,101
2022-10-02T13:15:02.928Z,101
2022-10-02T13:18:50.027Z,120
2022-10-02T13:22:30.946Z,99
2022-10-02T13:26:11.758Z,100
2022-10-02T13:29:53.305Z,99
2022-10-02T13:33:35.134Z,127
2022-10-02T13:37:29.327Z,291
2022-10-02T13:41:10.620Z,332
2022-10-02T13:44:55.437Z,132
2022-10-02T13:48:37.306Z,165
2022-10-02T13:52:21.579Z,162
2022-10-02T13:56:02.847Z,157
2022-10-02T13:59:43.723Z,157
2022-10-02T14:03:18.989Z,165
2022-10-02T14:07:00.081Z,134
2022-10-02T14:10:41.069Z,126
2022-10-02T14:14:22.661Z,125
2022-10-02T14:18:03.487Z,141
2022-10-02T14:21:45.452Z,123
2022-10-02T14:25:25.957Z,123
2022-10-02T14:29:14.115Z,122
2022-10-02T14:32:55.524Z,131
2022-10-02T14:36:36.322Z,119
2022-10-02T14:40:17.030Z,117
2022-10-02T14:43:58.077Z,119
2022-10-02T14:47:43.817Z,140
2022-10-02T14:51:24.994Z,124
2022-10-02T14:55:05.403Z,99
2022-10-02T14:58:51.093Z,99
2022-10-02T15:03:19.686Z,109
2022-10-02T15:07:07.335Z,99
2022-10-02T15:10:47.815Z,98
2022-10-02T15:14:36.855Z,98
2022-10-02T15:18:18.438Z,116
2022-10-02T15:21:59.642Z,99
2022-10-02T15:25:40.657Z,96
2022-10-02T15:29:37.525Z,96
2022-10-02T15:33:22.636Z,131
2022-10-02T15:37:03.468Z,122
2022-10-02T15:40:52.819Z,121
2022-10-02T15:44:43.627Z,122
2022-10-02T15:48:25.603Z,141
2022-10-02T15:52:06.202Z,124
2022-10-02T15:55:51.409Z,124
2022-10-02T15:59:32.702Z,121
2022-10-02T16:03:24.879Z,133
2022-10-02T16:08:47.991Z,130
2022-10-02T16:12:29.605Z,130
2022-10-02T16:16:10.721Z,132
2022-10-02T16:19:51.975Z,131
2022-10-02T16:23:33.013Z,108
2022-10-02T16:27:14.224Z,106
2022-10-02T16:30:55.259Z,108
2022-10-02T16:34:36.435Z,107
2022-10-02T16:38:22.477Z,99
2022-10-02T16:42:09.600Z,99
2022-10-02T16:45:50.665Z,99
2022-10-02T16:49:31.429Z,118
2022-10-02T16:53:14.847Z,119
2022-10-02T16:56:55.174Z,113
2022-10-02T17:03:53.077Z,1841
2022-10-02T17:07:34.208Z,1863
2022-10-02T17:11:19.243Z,4309
2022-10-02T17:14:59.821Z,260
2022-10-02T17:18:42.133Z,1626
2022-10-02T17:22:26.847Z,190
2022-10-02T17:26:07.478Z,2668
2022-10-02T17:29:50.467Z,3253
2022-10-02T17:33:38.866Z,3108
2022-10-02T17:37:20.192Z,3059
2022-10-02T17:41:02.719Z,299
2022-10-02T17:44:48.728Z,1034
2022-10-02T17:48:30.459Z,1634
2022-10-02T17:52:47.910Z,1610
2022-10-02T17:56:28.272Z,1621
2022-10-02T18:03:18.993Z,263
2022-10-02T18:06:59.246Z,1622
2022-10-02T18:10:39.460Z,1610
2022-10-02T18:14:19.991Z,1653
2022-10-02T18:18:00.982Z,275
2022-10-02T18:21:41.756Z,1646
2022-10-02T18:25:22.430Z,1645
2022-10-02T18:29:08.731Z,303
2022-10-02T18:32:57.863Z,300
2022-10-02T18:36:42.870Z,239
2022-10-02T18:40:23.354Z,242
2022-10-02T18:44:03.355Z,231
2022-10-02T18:47:44.436Z,251
2022-10-02T18:51:25.447Z,244
2022-10-02T18:55:05.565Z,240
2022-10-02T18:58:51.738Z,200
2022-10-02T19:03:19.470Z,216
2022-10-02T19:07:03.826Z,190
2022-10-02T19:10:44.246Z,186
2022-10-02T19:14:24.913Z,190
2022-10-02T19:18:05.607Z,199
2022-10-02T19:21:46.276Z,192
2022-10-02T19:26:35.448Z,187
2022-10-02T19:30:15.859Z,189
2022-10-02T19:33:56.123Z,229
2022-10-02T19:37:36.126Z,210
2022-10-02T19:41:16.206Z,225
2022-10-02T19:44:56.126Z,225
2022-10-02T19:48:36.876Z,194
2022-10-02T19:52:17.368Z,212
2022-10-02T19:56:00.017Z,212
2022-10-02T19:59:40.085Z,192
2022-10-02T20:03:22.589Z,195
2022-10-02T20:07:03.279Z,220
2022-10-02T20:10:49.452Z,212
2022-10-02T20:14:36.715Z,181
2022-10-02T20:18:17.271Z,170
2022-10-02T20:21:57.578Z,170
2022-10-02T20:25:37.620Z,194
2022-10-02T20:29:18.433Z,192
2022-10-02T20:32:59.017Z,200
2022-10-02T20:36:39.248Z,192
2022-10-02T20:40:19.480Z,185
2022-10-02T20:43:59.637Z,193
2022-10-02T20:47:45.288Z,204
2022-10-02T20:52:03.577Z,222
2022-10-02T20:55:43.712Z,213
2022-10-02T20:59:53.452Z,204
2022-10-02T21:03:19.242Z,211
2022-10-02T21:07:02.907Z,215
2022-10-02T21:10:46.481Z,226
2022-10-02T21:14:26.291Z,217
2022-10-02T21:18:11.494Z,144
2022-10-02T21:22:08.025Z,150
2022-10-02T21:25:47.789Z,1851
2022-10-02T21:29:28.965Z,1861
2022-10-02T21:33:10.948Z,126
2022-10-02T21:36:51.757Z,120
2022-10-02T21:40:31.704Z,118
2022-10-02T21:44:12.528Z,109
2022-10-02T21:47:58.920Z,126
2022-10-02T21:51:39.262Z,268
2022-10-02T21:55:19.628Z,192
2022-10-02T21:58:59.862Z,176
2022-10-02T22:03:43.721Z,177
2022-10-02T22:07:31.272Z,176
2022-10-02T22:11:11.392Z,174
2022-10-02T22:14:51.361Z,199
2022-10-02T22:18:32.075Z,210
2022-10-02T22:22:16.399Z,194
2022-10-02T22:25:56.518Z,207
2022-10-02T22:29:36.670Z,196
2022-10-02T22:33:17.657Z,189
2022-10-02T22:37:00.014Z,192
2022-10-02T22:40:39.835Z,195
2022-10-02T22:44:20.569Z,211
2022-10-02T22:48:01.202Z,202
2022-10-02T22:51:41.769Z,198
2022-10-02T22:55:21.905Z,196
2022-10-02T22:59:05.646Z,196
2022-10-02T23:03:19.107Z,195
2022-10-02T23:07:03.241Z,207
2022-10-02T23:10:43.215Z,201
2022-10-02T23:14:33.447Z,199
2022-10-02T23:18:13.992Z,197
2022-10-02T23:21:57.860Z,198
2022-10-02T23:25:37.520Z,236
2022-10-02T23:29:17.884Z,149
2022-10-02T23:32:58.761Z,264
2022-10-02T23:36:38.888Z,252
2022-10-02T23:40:18.752Z,252
2022-10-02T23:43:58.365Z,240
2022-10-02T23:47:38.632Z,238
2022-10-02T23:51:18.857Z,239
2022-10-02T23:54:58.836Z,239
2022-10-02T23:58:44.410Z,114
